This is the latest recevied weather packets stored in our database for station/object HP1PCR-13. If no packets are shown the sender has not sent any weather packets the latest 10 day(s).
| Time | Temp. | Humidity | Pressure | Rain* | Wind** | Luminosity | Snow |
|---|---|---|---|---|---|---|---|
| 1778032343 | 30° C | 32% | 1004.1 hPa | - | - | - | - |
| 1778031739 | 30° C | 36% | 1004.2 hPa | - | - | - | - |
| 1778031135 | 30° C | 39% | 1004.1 hPa | - | - | - | - |
| 1778030531 | 30° C | 34% | 1004 hPa | - | - | - | - |
| 1778029927 | 30° C | 32% | 1003.9 hPa | - | - | - | - |
| 1778029323 | 30.56° C | 34% | 1003.7 hPa | - | - | - | - |
| 1778028719 | 30.56° C | 38% | 1003.5 hPa | - | - | - | - |
| 1778028115 | 30.56° C | 35% | 1003.5 hPa | - | - | - | - |
| 1778026906 | 31.11° C | 43% | 1003.2 hPa | - | - | - | - |
| 1778026302 | 31.11° C | 43% | 1003.2 hPa | - | - | - | - |
| 1778025697 | 31.11° C | 43% | 1003 hPa | - | - | - | - |
| 1778025093 | 31.11° C | 40% | 1002.9 hPa | - | - | - | - |
| 1778022677 | 30.56° C | 34% | 1002.4 hPa | - | - | - | - |
| 1778022073 | 30.56° C | 36% | 1002.3 hPa | - | - | - | - |
| 1778021469 | 30.56° C | 37% | 1002.5 hPa | - | - | - | - |
| 1778020864 | 30.56° C | 33% | 1002.4 hPa | - | - | - | - |
| 1778020260 | 31.11° C | 34% | 1002.4 hPa | - | - | - | - |
| 1778019657 | 31.11° C | 31% | 1002.2 hPa | - | - | - | - |
| 1778019053 | 31.11° C | 32% | 1002.2 hPa | - | - | - | - |
| 1778018448 | 31.67° C | 34% | 1002.2 hPa | - | - | - | - |
| 1778017844 | 31.67° C | 30% | 1002.2 hPa | - | - | - | - |
| 1778017240 | 31.67° C | 27% | 1002.2 hPa | - | - | - | - |
| 1778016636 | 32.22° C | 29% | 1002.1 hPa | - | - | - | - |
| 1778016032 | 32.78° C | 31% | 1002.1 hPa | - | - | - | - |
| 1778015428 | 33.33° C | 35% | 1002 hPa | - | - | - | - |
* Rain since midnight (hover to see other rain measurements)
** Current wind speed in m/s (hover to see current wind gust speed)